Time;durP1;ratioP1;P1;durP2;ratioP2;P2;SDS_P1;SDS_P2;PMS_P1;PMS_P2;Temp;Humidity;BMP_temperature;BMP_pressure;BME280_temperature;BME280_humidity;BME280_pressure;Samples;Min_cycle;Max_cycle;Signal;HPM_P1;HPM_P2
2024/01/06 00:00:26;;;;;;;2.77;2.10;;;;;;;6.23;100.00;99152.53;5059838;28;20194;-78
2024/01/06 00:02:52;;;;;;;2.90;2.20;;;;;;;6.22;100.00;99153.38;5055238;28;20664;-78
2024/01/06 00:05:17;;;;;;;4.43;2.60;;;;;;;6.22;100.00;99158.53;5064418;28;20749;-78
2024/01/06 00:07:42;;;;;;;4.50;2.53;;;;;;;6.20;100.00;99154.28;5058555;28;20369;-78
2024/01/06 00:10:08;;;;;;;4.73;2.83;;;;;;;6.18;100.00;99156.88;5058239;28;20200;-78
2024/01/06 00:12:33;;;;;;;5.90;2.90;;;;;;;6.16;100.00;99150.88;5055913;28;20243;-78
2024/01/06 00:14:59;;;;;;;3.93;2.83;;;;;;;6.15;100.00;99154.31;5058121;28;20241;-79
2024/01/06 00:17:24;;;;;;;3.53;2.70;;;;;;;6.13;100.00;99153.47;5056291;28;20219;-78
2024/01/06 00:19:52;;;;;;;4.60;3.03;;;;;;;6.12;100.00;99156.06;5058001;28;20184;-78
2024/01/06 00:22:18;;;;;;;5.17;2.73;;;;;;;6.10;100.00;99151.81;5057040;28;20769;-78
2024/01/06 00:24:43;;;;;;;3.87;3.00;;;;;;;6.11;100.00;99152.63;5059897;28;20290;-77
2024/01/06 00:27:09;;;;;;;5.87;3.07;;;;;;;6.08;100.00;99148.38;5060611;28;20183;-79
2024/01/06 00:29:34;;;;;;;3.13;2.20;;;;;;;6.06;100.00;99147.56;5070485;28;20602;-78
2024/01/06 00:31:59;;;;;;;4.03;2.47;;;;;;;6.05;100.00;99152.72;5058791;28;20223;-77
2024/01/06 00:34:25;;;;;;;4.73;2.60;;;;;;;6.03;100.00;99151.88;5061442;28;20205;-78
2024/01/06 00:36:50;;;;;;;5.00;2.53;;;;;;;6.02;100.00;99148.44;5058856;28;20278;-79
2024/01/06 00:39:15;;;;;;;3.70;2.60;;;;;;;6.01;100.00;99153.59;5061206;28;20189;-78
2024/01/06 00:41:41;;;;;;;3.13;2.50;;;;;;;6.00;100.00;99155.28;5065999;28;20582;-79
2024/01/06 00:44:06;;;;;;;3.93;2.20;;;;;;;5.98;100.00;99145.88;5060714;28;20668;-78
2024/01/06 00:46:31;;;;;;;2.80;2.13;;;;;;;5.98;100.00;99156.16;5057810;28;20296;-78
2024/01/06 00:48:56;;;;;;;6.10;2.30;;;;;;;5.96;100.00;99151.03;5056422;28;20186;-78
2024/01/06 00:51:22;;;;;;;3.63;2.30;;;;;;;5.93;100.00;99145.94;5056913;28;20193;-78
2024/01/06 00:53:47;;;;;;;2.30;1.90;;;;;;;5.91;100.00;99151.06;5063191;28;20184;-77
2024/01/06 00:56:12;;;;;;;3.37;2.13;;;;;;;5.90;100.00;99151.91;5054831;28;20342;-78
2024/01/06 00:58:38;;;;;;;2.33;2.10;;;;;;;5.90;100.00;99148.50;5058395;28;20215;-80
2024/01/06 01:01:03;;;;;;;4.27;2.40;;;;;;;5.87;100.00;99153.66;5063510;28;20180;-78
2024/01/06 01:03:28;;;;;;;3.23;1.97;;;;;;;5.83;100.00;99157.97;5060571;28;20203;-77
2024/01/06 01:05:54;;;;;;;4.00;2.03;;;;;;;5.86;100.00;99157.09;5057175;28;20296;-79
2024/01/06 01:08:19;;;;;;;2.90;1.70;;;;;;;5.86;100.00;99164.78;5055429;28;20208;-78
2024/01/06 01:10:45;;;;;;;3.27;2.20;;;;;;;5.85;100.00;99163.97;5052559;28;20188;-78
2024/01/06 01:13:10;;;;;;;3.53;1.90;;;;;;;5.84;100.00;99174.22;5060063;28;20188;-78
2024/01/06 01:15:36;;;;;;;1.80;1.53;;;;;;;5.84;100.00;99169.97;5055514;28;20298;-77
2024/01/06 01:18:01;;;;;;;3.20;2.00;;;;;;;5.83;100.00;99180.22;5055809;28;20294;-78
2024/01/06 01:20:26;;;;;;;2.60;2.10;;;;;;;5.87;100.00;99184.47;5053736;28;20190;-78
2024/01/06 01:22:52;;;;;;;2.60;1.90;;;;;;;5.86;100.00;99185.34;5055560;28;20272;-78
2024/01/06 01:25:17;;;;;;;3.93;2.30;;;;;;;5.86;100.00;99188.78;5057832;28;20284;-78
2024/01/06 01:27:42;;;;;;;4.67;2.47;;;;;;;5.86;100.00;99187.91;5064906;28;20190;-78
2024/01/06 01:30:08;;;;;;;3.97;2.33;;;;;;;5.83;100.00;99187.91;5059145;28;20194;-78
2024/01/06 01:32:33;;;;;;;4.80;2.33;;;;;;;5.80;100.00;99192.25;5056094;28;20262;-78
2024/01/06 01:34:58;;;;;;;3.60;2.33;;;;;;;5.78;100.00;99200.78;5060667;28;20554;-78
2024/01/06 01:37:24;;;;;;;3.90;2.40;;;;;;;5.76;100.00;99207.66;5053318;28;20195;-78
2024/01/06 01:39:49;;;;;;;3.60;2.17;;;;;;;5.71;100.00;99199.16;5052104;28;20205;-77
2024/01/06 01:42:14;;;;;;;3.47;2.10;;;;;;;5.68;100.00;99210.28;5055852;28;20302;-78
2024/01/06 01:44:40;;;;;;;2.53;1.60;;;;;;;5.62;100.00;99205.19;5051490;28;20203;-78
2024/01/06 01:47:05;;;;;;;2.50;1.70;;;;;;;5.60;100.00;99207.75;5053856;28;20180;-77
2024/01/06 01:49:32;;;;;;;3.40;2.43;;;;;;;5.61;100.00;99214.59;5051641;28;20676;-78
2024/01/06 01:51:58;;;;;;;4.20;2.47;;;;;;;5.58;100.00;99213.78;5050026;28;20235;-78
2024/01/06 01:54:23;;;;;;;4.37;2.70;;;;;;;5.54;100.00;99220.63;5056060;28;20592;-77
2024/01/06 01:56:48;;;;;;;4.17;2.33;;;;;;;5.52;100.00;99227.50;5064519;28;20184;-77
2024/01/06 01:59:18;;;;;;;3.70;2.67;;;;;;;5.48;100.00;99234.34;5049858;28;20206;-78
2024/01/06 02:01:44;;;;;;;4.67;2.33;;;;;;;5.45;100.00;99228.38;5053169;28;20241;-78
2024/01/06 02:04:09;;;;;;;3.27;2.30;;;;;;;5.43;100.00;99236.09;5056366;28;20282;-78
2024/01/06 02:06:35;;;;;;;3.53;2.43;;;;;;;5.41;100.00;99231.84;5054957;28;20205;-77
2024/01/06 02:09:00;;;;;;;3.40;2.27;;;;;;;5.42;100.00;99238.69;5054487;28;20285;-77
2024/01/06 02:11:25;;;;;;;3.37;2.53;;;;;;;5.40;100.00;99238.66;5053541;28;20197;-78
2024/01/06 02:13:51;;;;;;;5.90;2.17;;;;;;;5.41;100.00;99240.38;5053025;28;20203;-77
2024/01/06 02:16:16;;;;;;;4.73;2.40;;;;;;;5.40;100.00;99237.81;5047827;28;20207;-78
2024/01/06 02:18:41;;;;;;;3.80;2.13;;;;;;;5.38;100.00;99248.06;5046914;28;20193;-77
2024/01/06 02:21:07;;;;;;;5.17;2.40;;;;;;;5.37;100.00;99248.94;5053726;28;20181;-77
2024/01/06 02:23:35;;;;;;;5.07;2.60;;;;;;;5.38;100.00;99252.38;5048574;28;20210;-78
2024/01/06 02:26:01;;;;;;;5.13;2.77;;;;;;;5.36;100.00;99254.94;5054494;28;20317;-77
2024/01/06 02:28:26;;;;;;;5.00;2.57;;;;;;;5.35;100.00;99250.69;5052348;28;20949;-78
2024/01/06 02:30:51;;;;;;;4.90;2.60;;;;;;;5.33;100.00;99254.97;5050920;28;20324;-77
2024/01/06 02:33:19;;;;;;;4.10;2.77;;;;;;;5.32;100.00;99260.94;5048205;28;20190;-77
2024/01/06 02:35:45;;;;;;;3.70;2.53;;;;;;;5.34;100.00;99261.81;5054734;28;20273;-77
2024/01/06 02:38:10;;;;;;;4.33;2.17;;;;;;;5.33;100.00;99254.97;5057097;28;20207;-78
2024/01/06 02:40:35;;;;;;;5.40;1.87;;;;;;;5.34;100.00;99270.34;5052223;28;20200;-77
2024/01/06 02:43:01;;;;;;;6.20;2.53;;;;;;;5.34;100.00;99272.06;5047296;28;20210;-77
2024/01/06 02:45:26;;;;;;;3.87;2.40;;;;;;;5.32;100.00;99276.34;5056023;28;20532;-78
2024/01/06 02:47:51;;;;;;;4.27;2.23;;;;;;;5.31;100.00;99278.03;5055347;28;20236;-77
2024/01/06 02:50:17;;;;;;;5.00;1.87;;;;;;;5.30;100.00;99278.06;5053399;28;20230;-78
2024/01/06 02:52:44;;;;;;;4.50;2.17;;;;;;;5.27;100.00;99284.06;5052767;28;20182;-78
2024/01/06 02:55:09;;;;;;;4.37;2.80;;;;;;;5.27;100.00;99281.50;5069639;28;20203;-78
2024/01/06 02:57:35;;;;;;;5.37;2.50;;;;;;;5.28;100.00;99285.78;5050763;28;20192;-78
2024/01/06 03:00:01;;;;;;;5.03;2.60;;;;;;;5.26;100.00;99284.91;5055068;28;20183;-77
2024/01/06 03:02:26;;;;;;;5.83;2.67;;;;;;;5.22;100.00;99284.94;5047387;28;20217;-77
2024/01/06 03:04:52;;;;;;;3.40;2.80;;;;;;;5.21;100.00;99290.94;5050989;28;20271;-76
2024/01/06 03:07:17;;;;;;;5.50;2.50;;;;;;;5.17;100.00;99296.06;5052048;28;20222;-75
2024/01/06 03:09:43;;;;;;;5.70;2.50;;;;;;;5.14;100.00;99296.06;5057190;28;20341;-76
2024/01/06 03:12:08;;;;;;;4.13;2.33;;;;;;;5.13;100.00;99306.34;5051365;28;20184;-74
2024/01/06 03:14:37;;;;;;;5.10;2.60;;;;;;;5.10;100.00;99298.66;5058774;28;20182;-75
2024/01/06 03:17:03;;;;;;;4.93;2.70;;;;;;;5.07;100.00;99304.59;5051961;28;20188;-77
2024/01/06 03:19:29;;;;;;;5.07;2.70;;;;;;;5.07;100.00;99302.03;5053654;28;20194;-76
2024/01/06 03:21:55;;;;;;;3.87;2.47;;;;;;;5.02;100.00;99302.06;5055153;28;20210;-75
2024/01/06 03:24:25;;;;;;;3.30;2.40;;;;;;;4.99;100.00;99303.78;5060239;28;20194;-76
2024/01/06 03:26:51;;;;;;;4.47;2.97;;;;;;;4.96;100.00;99302.09;5059778;28;20273;-75
2024/01/06 03:29:16;;;;;;;3.90;2.50;;;;;;;4.97;100.00;99308.06;5061247;28;20285;-76
2024/01/06 03:31:42;;;;;;;6.87;3.10;;;;;;;4.98;100.00;99313.22;5054257;28;20269;-75
2024/01/06 03:34:08;;;;;;;4.23;2.80;;;;;;;4.99;100.00;99311.47;5055835;28;20246;-74
2024/01/06 03:36:34;;;;;;;4.57;2.77;;;;;;;5.02;100.00;99302.06;5055175;28;20698;-75
2024/01/06 03:38:59;;;;;;;4.03;2.73;;;;;;;5.04;100.00;99304.66;5058270;28;20184;-76
2024/01/06 03:41:24;;;;;;;4.30;2.27;;;;;;;5.11;100.00;99305.47;5058497;28;20198;-76
2024/01/06 03:43:49;;;;;;;2.83;2.00;;;;;;;5.15;100.00;99300.34;5054701;28;20237;-77
2024/01/06 03:46:15;;;;;;;2.87;1.67;;;;;;;5.21;100.00;99304.59;5056859;28;20722;-77
2024/01/06 03:48:40;;;;;;;4.47;2.60;;;;;;;5.32;100.00;99305.41;5051857;28;20183;-75
2024/01/06 03:51:07;;;;;;;2.60;1.70;;;;;;;5.36;100.00;99307.97;5060574;28;20199;-76
2024/01/06 03:53:32;;;;;;;3.23;2.03;;;;;;;5.38;100.00;99306.25;5065098;28;20183;-76
2024/01/06 03:55:58;;;;;;;3.73;1.90;;;;;;;5.42;100.00;99307.94;5050983;28;20213;-75
2024/01/06 03:58:23;;;;;;;3.13;2.30;;;;;;;5.48;100.00;99310.47;5055941;28;20591;-76
2024/01/06 04:00:48;;;;;;;3.13;2.03;;;;;;;5.48;100.00;99316.47;5060873;28;20572;-76
2024/01/06 04:03:14;;;;;;;4.43;2.17;;;;;;;5.53;100.00;99315.59;5058838;28;20281;-76
2024/01/06 04:05:39;;;;;;;3.30;1.73;;;;;;;5.52;100.00;99312.19;5063224;28;20206;-77
2024/01/06 04:08:04;;;;;;;4.80;2.27;;;;;;;5.53;100.00;99303.63;5049977;28;20671;-76
2024/01/06 04:10:30;;;;;;;4.93;2.53;;;;;;;5.57;100.00;99302.75;5055129;28;20545;-77
2024/01/06 04:12:55;;;;;;;4.17;2.27;;;;;;;5.59;100.00;99302.75;5051901;28;20191;-76
2024/01/06 04:15:20;;;;;;;5.73;2.43;;;;;;;5.62;100.00;99302.72;5050991;28;20235;-77
2024/01/06 04:17:48;;;;;;;5.87;2.70;;;;;;;5.59;100.00;99295.03;5055717;28;20588;-77
2024/01/06 04:20:14;;;;;;;3.67;2.17;;;;;;;5.57;100.00;99291.63;5055389;28;20237;-76
2024/01/06 04:22:39;;;;;;;5.07;2.47;;;;;;;5.56;100.00;99298.47;5052857;28;20211;-76
2024/01/06 04:25:04;;;;;;;5.03;2.23;;;;;;;5.55;100.00;99298.47;5056264;28;20195;-76
2024/01/06 04:27:30;;;;;;;5.47;2.57;;;;;;;5.54;100.00;99299.31;5057008;28;20264;-77
2024/01/06 04:29:56;;;;;;;3.13;2.00;;;;;;;5.54;100.00;99301.91;5055227;28;20740;-77
2024/01/06 04:32:21;;;;;;;3.13;1.90;;;;;;;5.53;100.00;99303.63;5064520;28;20178;-77
2024/01/06 04:34:46;;;;;;;4.43;2.43;;;;;;;5.55;100.00;99307.03;5062204;28;20229;-77
2024/01/06 04:37:12;;;;;;;3.83;1.93;;;;;;;5.57;100.00;99312.16;5060272;28;21705;-76
2024/01/06 04:39:38;;;;;;;3.10;1.93;;;;;;;5.60;100.00;99310.41;5052736;28;20295;-77
2024/01/06 04:42:04;;;;;;;5.97;2.63;;;;;;;5.61;100.00;99311.28;5054223;28;20211;-77
2024/01/06 04:44:29;;;;;;;3.17;2.07;;;;;;;5.61;100.00;99301.88;5057853;28;20208;-77
2024/01/06 04:46:54;;;;;;;2.97;2.00;;;;;;;5.60;100.00;99304.44;5061758;28;20212;-77
2024/01/06 04:49:20;;;;;;;4.57;2.53;;;;;;;5.58;100.00;99301.03;5059798;28;20225;-76
2024/01/06 04:51:45;;;;;;;4.77;2.70;;;;;;;5.57;100.00;99302.75;5063390;28;20182;-76
2024/01/06 04:54:10;;;;;;;2.90;2.10;;;;;;;5.57;100.00;99307.91;5055764;28;20212;-77
2024/01/06 04:56:36;;;;;;;3.57;2.13;;;;;;;5.57;100.00;99302.75;5062293;28;20322;-77
2024/01/06 04:59:01;;;;;;;5.17;3.00;;;;;;;5.56;100.00;99306.19;5059740;28;20178;-78
2024/01/06 05:01:26;;;;;;;5.50;2.70;;;;;;;5.58;100.00;99301.03;5054211;28;20218;-76
2024/01/06 05:03:52;;;;;;;5.90;2.63;;;;;;;5.56;100.00;99307.88;5059952;28;20231;-76
2024/01/06 05:06:17;;;;;;;4.57;2.03;;;;;;;5.54;100.00;99317.28;5057798;28;20972;-76
2024/01/06 05:08:44;;;;;;;6.33;2.77;;;;;;;5.56;100.00;99308.75;5055367;28;20204;-76
2024/01/06 05:11:10;;;;;;;4.40;2.40;;;;;;;5.58;100.00;99314.72;5056683;28;20185;-77
2024/01/06 05:13:36;;;;;;;2.70;2.23;;;;;;;5.57;100.00;99307.91;5056435;28;20193;-77
2024/01/06 05:16:01;;;;;;;3.57;2.57;;;;;;;5.60;100.00;99301.88;5056645;28;20214;-76
2024/01/06 05:18:26;;;;;;;3.43;2.37;;;;;;;5.62;100.00;99302.72;5059208;28;20687;-76
2024/01/06 05:20:52;;;;;;;3.80;2.23;;;;;;;5.61;100.00;99309.56;5059257;28;20188;-76
2024/01/06 05:23:17;;;;;;;4.63;2.50;;;;;;;5.61;100.00;99312.13;5056377;28;20646;-76
2024/01/06 05:25:42;;;;;;;4.13;2.60;;;;;;;5.63;100.00;99307.84;5059623;28;20205;-76
2024/01/06 05:28:08;;;;;;;3.73;2.47;;;;;;;5.65;100.00;99305.28;5062033;28;20188;-77
2024/01/06 05:30:33;;;;;;;4.03;2.70;;;;;;;5.63;100.00;99297.56;5058786;28;20175;-76
2024/01/06 05:32:58;;;;;;;3.87;2.43;;;;;;;5.61;100.00;99299.28;5065144;28;20185;-77
2024/01/06 05:35:24;;;;;;;4.17;2.60;;;;;;;5.63;100.00;99296.75;5055720;28;20288;-76
2024/01/06 05:37:49;;;;;;;4.53;2.40;;;;;;;5.62;100.00;99290.75;5057504;28;20184;-76
2024/01/06 05:40:14;;;;;;;3.73;2.70;;;;;;;5.61;100.00;99296.72;5064258;28;20180;-76
2024/01/06 05:42:40;;;;;;;4.70;2.70;;;;;;;5.60;100.00;99297.59;5061056;28;20570;-76
2024/01/06 05:45:06;;;;;;;7.03;3.17;;;;;;;5.61;100.00;99307.00;5057948;28;20202;-76
2024/01/06 05:47:31;;;;;;;4.37;2.57;;;;;;;5.61;100.00;99298.47;5059405;28;20671;-76
2024/01/06 05:49:57;;;;;;;6.07;2.80;;;;;;;5.60;100.00;99305.28;5055120;28;21000;-77
2024/01/06 05:52:23;;;;;;;4.33;2.67;;;;;;;5.60;100.00;99305.28;5060035;28;20176;-77
2024/01/06 05:54:48;;;;;;;4.27;2.70;;;;;;;5.63;100.00;99312.13;5059551;28;20223;-77
2024/01/06 05:57:14;;;;;;;5.17;2.70;;;;;;;5.64;100.00;99312.13;5051065;28;20183;-77
2024/01/06 05:59:40;;;;;;;5.30;2.73;;;;;;;5.65;100.00;99315.56;5063172;28;20185;-77
2024/01/06 06:02:05;;;;;;;5.57;2.90;;;;;;;5.64;100.00;99317.25;5059494;28;20212;-77
2024/01/06 06:04:31;;;;;;;3.33;2.23;;;;;;;5.64;100.00;99332.66;5054922;28;20193;-77
2024/01/06 06:06:56;;;;;;;4.23;2.40;;;;;;;5.65;100.00;99318.13;5064516;28;20182;-77
2024/01/06 06:09:22;;;;;;;3.27;2.33;;;;;;;5.68;100.00;99324.94;5058558;28;20191;-77
2024/01/06 06:11:47;;;;;;;6.00;2.27;;;;;;;5.70;100.00;99338.63;5052445;28;20590;-77
2024/01/06 06:14:12;;;;;;;5.37;2.30;;;;;;;5.72;100.00;99342.88;5053923;28;20193;-76
2024/01/06 06:16:38;;;;;;;4.83;2.70;;;;;;;5.77;100.00;99343.75;5061152;28;20241;-77
2024/01/06 06:19:03;;;;;;;3.90;2.60;;;;;;;5.76;100.00;99344.59;5056467;28;20219;-78
2024/01/06 06:21:28;;;;;;;4.17;2.50;;;;;;;5.75;100.00;99352.28;5057396;28;20213;-78
2024/01/06 06:23:56;;;;;;;6.13;2.60;;;;;;;5.75;100.00;99358.28;5057405;28;20196;-76
2024/01/06 06:26:21;;;;;;;3.93;2.60;;;;;;;5.74;100.00;99359.16;5059922;28;20746;-77
2024/01/06 06:28:47;;;;;;;3.87;2.40;;;;;;;5.76;100.00;99361.69;5057881;28;20266;-77
2024/01/06 06:31:12;;;;;;;5.20;2.53;;;;;;;5.77;100.00;99363.41;5059586;28;20702;-77
2024/01/06 06:33:37;;;;;;;3.47;2.27;;;;;;;5.79;100.00;99366.81;5054355;28;20267;-76
2024/01/06 06:36:03;;;;;;;3.70;2.50;;;;;;;5.83;100.00;99365.09;5053395;28;20289;-76
2024/01/06 06:38:29;;;;;;;4.90;2.30;;;;;;;5.86;100.00;99372.78;5060788;28;20187;-76
2024/01/06 06:40:54;;;;;;;5.00;2.63;;;;;;;5.92;100.00;99370.19;5051938;28;20225;-77
2024/01/06 06:43:20;;;;;;;3.93;2.30;;;;;;;5.94;100.00;99374.47;5053785;28;20215;-76
2024/01/06 06:45:45;;;;;;;3.67;2.07;;;;;;;5.97;100.00;99370.16;5047571;28;21675;-76
2024/01/06 06:48:10;;;;;;;2.93;2.50;;;;;;;5.98;100.00;99372.72;5050799;28;20744;-78
2024/01/06 06:50:36;;;;;;;4.57;2.47;;;;;;;5.99;100.00;99377.00;5052012;28;20744;-76
2024/01/06 06:53:01;;;;;;;4.77;3.10;;;;;;;6.02;100.00;99378.75;5055191;28;20204;-77
2024/01/06 06:55:27;;;;;;;3.77;2.90;;;;;;;6.01;100.00;99384.75;5059732;28;20250;-76
2024/01/06 06:57:52;;;;;;;4.10;2.67;;;;;;;6.00;100.00;99395.88;5054212;28;20186;-77
2024/01/06 07:00:18;;;;;;;5.10;3.00;;;;;;;6.01;100.00;99397.59;5055090;28;20190;-78
2024/01/06 07:02:43;;;;;;;3.33;2.77;;;;;;;6.04;100.00;99405.28;5050099;28;20205;-77
2024/01/06 07:05:09;;;;;;;5.30;2.83;;;;;;;6.08;100.00;99406.97;5048399;28;20211;-77
2024/01/06 07:07:34;;;;;;;4.53;3.03;;;;;;;6.08;100.00;99407.81;5054239;28;20187;-77
2024/01/06 07:10:04;;;;;;;3.67;2.77;;;;;;;6.11;100.00;99414.66;5057016;28;20270;-76
2024/01/06 07:12:30;;;;;;;3.70;3.27;;;;;;;6.13;100.00;99417.19;5052531;28;20176;-77
2024/01/06 07:14:56;;;;;;;3.63;2.70;;;;;;;6.13;100.00;99414.63;5049478;28;20213;-76
2024/01/06 07:17:21;;;;;;;3.33;2.93;;;;;;;6.13;100.00;99417.19;5050440;28;20590;-77
2024/01/06 07:19:46;;;;;;;3.20;2.90;;;;;;;6.13;100.00;99422.34;5048268;28;20187;-77
2024/01/06 07:22:12;;;;;;;3.10;2.80;;;;;;;6.10;100.00;99423.22;5050651;28;20213;-77
2024/01/06 07:24:37;;;;;;;3.23;2.93;;;;;;;6.08;100.00;99436.09;5055647;28;20658;-77
2024/01/06 07:27:03;;;;;;;5.27;3.20;;;;;;;6.08;100.00;99433.50;5053495;28;20576;-77
2024/01/06 07:29:29;;;;;;;3.87;3.23;;;;;;;6.10;100.00;99425.78;5054877;28;20196;-77
2024/01/06 07:31:54;;;;;;;4.10;2.90;;;;;;;6.08;100.00;99430.06;5048814;28;20185;-78
2024/01/06 07:34:19;;;;;;;5.47;2.80;;;;;;;6.05;100.00;99433.53;5051643;28;20188;-77
2024/01/06 07:36:45;;;;;;;3.60;2.70;;;;;;;6.06;100.00;99430.09;5051668;28;20277;-77
2024/01/06 07:39:10;;;;;;;3.23;2.50;;;;;;;6.08;100.00;99430.94;5050087;28;20216;-76
2024/01/06 07:41:35;;;;;;;3.00;2.80;;;;;;;6.11;100.00;99437.78;5051482;28;20192;-78
2024/01/06 07:44:02;;;;;;;3.40;2.93;;;;;;;6.15;100.00;99431.78;5060117;28;20179;-77
2024/01/06 07:46:28;;;;;;;3.77;3.13;;;;;;;6.20;100.00;99431.75;5051600;28;20602;-77
2024/01/06 07:48:54;;;;;;;4.47;3.03;;;;;;;6.25;100.00;99435.16;5054293;28;20179;-77
2024/01/06 07:51:19;;;;;;;3.90;3.07;;;;;;;6.27;100.00;99436.00;5054862;28;20211;-77
2024/01/06 07:53:44;;;;;;;3.77;3.37;;;;;;;6.31;100.00;99447.13;5051897;28;20682;-76
2024/01/06 07:56:10;;;;;;;4.77;3.60;;;;;;;6.32;100.00;99449.66;5055099;28;20292;-77
2024/01/06 07:58:35;;;;;;;3.73;3.30;;;;;;;6.32;100.00;99454.81;5060124;28;20238;-77
2024/01/06 08:01:01;;;;;;;6.10;3.97;;;;;;;6.27;100.00;99456.56;5055870;28;20218;-77
2024/01/06 08:03:26;;;;;;;4.33;3.93;;;;;;;6.27;100.00;99453.13;5052870;28;20273;-77
2024/01/06 08:05:52;;;;;;;3.87;3.40;;;;;;;6.29;100.00;99464.25;5054814;28;20756;-77
2024/01/06 08:08:18;;;;;;;4.47;3.87;;;;;;;6.26;100.00;99465.13;5064256;28;20190;-77
2024/01/06 08:10:44;;;;;;;3.87;3.27;;;;;;;6.24;100.00;99459.97;5063659;28;20206;-77
2024/01/06 08:13:09;;;;;;;4.30;3.60;;;;;;;6.27;100.00;99465.97;5067736;28;20221;-76
2024/01/06 08:15:34;;;;;;;3.03;2.70;;;;;;;6.27;100.00;99471.97;5053129;28;20234;-76
2024/01/06 08:18:00;;;;;;;3.33;2.93;;;;;;;6.29;100.00;99465.09;5053627;28;20219;-77
2024/01/06 08:20:25;;;;;;;3.40;2.67;;;;;;;6.31;100.00;99465.09;5065685;28;20730;-77
2024/01/06 08:22:50;;;;;;;3.00;2.70;;;;;;;6.35;100.00;99477.09;5055880;28;20207;-77
2024/01/06 08:25:17;;;;;;;3.80;2.80;;;;;;;6.36;100.00;99478.75;5056625;28;20248;-77
2024/01/06 08:27:43;;;;;;;3.20;2.90;;;;;;;6.38;100.00;99475.34;5060902;28;20182;-76
2024/01/06 08:30:09;;;;;;;4.03;3.27;;;;;;;6.40;100.00;99480.47;5054259;28;21029;-78
2024/01/06 08:32:34;;;;;;;3.60;3.00;;;;;;;6.39;100.00;99489.91;5059300;28;20198;-77
2024/01/06 08:34:59;;;;;;;4.20;3.47;;;;;;;6.43;100.00;99484.75;5064243;28;20205;-78
2024/01/06 08:37:25;;;;;;;4.00;3.60;;;;;;;6.42;100.00;99494.16;5062531;28;20226;-76
2024/01/06 08:39:50;;;;;;;3.87;3.57;;;;;;;6.42;100.00;99499.31;5061714;28;20273;-76
2024/01/06 08:42:15;;;;;;;4.57;4.00;;;;;;;6.45;100.00;99496.72;5061593;28;20200;-79
2024/01/06 08:44:41;;;;;;;6.53;4.73;;;;;;;6.45;100.00;99498.44;5063901;28;20760;-77
2024/01/06 08:47:06;;;;;;;4.90;4.40;;;;;;;6.43;100.00;99495.88;5059840;28;20195;-77
2024/01/06 08:49:31;;;;;;;5.30;4.80;;;;;;;6.44;100.00;99507.88;5058716;28;20901;-77
2024/01/06 08:51:57;;;;;;;4.30;3.90;;;;;;;6.42;100.00;99504.44;5051734;28;20188;-78
2024/01/06 08:54:23;;;;;;;4.50;4.10;;;;;;;6.48;100.00;99508.69;5055107;28;20188;-78
2024/01/06 08:56:49;;;;;;;4.87;4.33;;;;;;;6.52;100.00;99510.41;5054602;28;20698;-77
2024/01/06 08:59:15;;;;;;;4.50;4.13;;;;;;;6.55;100.00;99505.25;5051848;28;20194;-77
2024/01/06 09:01:40;;;;;;;5.60;5.10;;;;;;;6.55;100.00;99511.22;5056555;28;20236;-78
2024/01/06 09:04:06;;;;;;;5.67;5.10;;;;;;;6.60;100.00;99507.78;5056315;28;20193;-76
2024/01/06 09:06:32;;;;;;;5.70;5.20;;;;;;;6.59;100.00;99512.06;5056028;28;20824;-77
2024/01/06 09:08:57;;;;;;;5.60;5.10;;;;;;;6.59;100.00;99506.09;5060947;28;20204;-77
2024/01/06 09:11:22;;;;;;;6.00;5.40;;;;;;;6.58;100.00;99514.66;5053164;28;20192;-78
2024/01/06 09:13:48;;;;;;;5.07;4.57;;;;;;;6.60;100.00;99510.38;5057752;28;20191;-77
2024/01/06 09:16:13;;;;;;;4.90;4.40;;;;;;;6.64;100.00;99514.63;5053652;28;20745;-77
2024/01/06 09:18:39;;;;;;;5.70;5.20;;;;;;;6.68;100.00;99517.19;5059806;28;20534;-77
2024/01/06 09:21:05;;;;;;;5.53;4.80;;;;;;;6.71;100.00;99517.16;5068153;28;20189;-77
2024/01/06 09:23:31;;;;;;;6.80;5.70;;;;;;;6.75;100.00;99514.56;5056407;28;20220;-77
2024/01/06 09:25:57;;;;;;;19.20;17.30;;;;;;;6.77;100.00;99520.53;5058224;28;20216;-77
2024/01/06 09:28:23;;;;;;;16.37;14.77;;;;;;;6.82;100.00;99518.81;5054952;28;20253;-78
2024/01/06 09:30:48;;;;;;;11.30;10.23;;;;;;;6.85;100.00;99529.94;5058536;28;20182;-77
2024/01/06 09:33:15;;;;;;;7.97;7.17;;;;;;;6.89;100.00;99525.59;5064689;28;20284;-77
2024/01/06 09:35:41;;;;;;;6.40;5.67;;;;;;;6.91;100.00;99530.75;5055983;28;20224;-77
2024/01/06 09:38:07;;;;;;;7.10;5.23;;;;;;;6.91;100.00;99533.34;5061565;28;20185;-77
2024/01/06 09:40:34;;;;;;;5.83;5.23;;;;;;;6.97;100.00;99533.28;5059646;28;20969;-79
2024/01/06 09:42:59;;;;;;;6.07;5.57;;;;;;;6.98;100.00;99535.88;5056895;28;20214;-77
2024/01/06 09:45:25;;;;;;;5.73;5.10;;;;;;;6.99;100.00;99539.28;5052863;28;20217;-78
2024/01/06 09:47:51;;;;;;;7.53;6.50;;;;;;;7.01;100.00;99538.41;5053360;28;20190;-77
2024/01/06 09:50:20;;;;;;;7.83;6.43;;;;;;;7.01;100.00;99541.00;5055728;28;20190;-78
2024/01/06 09:52:54;;;;;;;7.17;6.47;;;;;;;7.05;100.00;99543.53;5056231;28;20179;-78
2024/01/06 09:55:26;;;;;;;7.43;6.37;;;;;;;7.07;100.00;99541.78;5056017;28;21658;-77
2024/01/06 09:57:55;;;;;;;6.87;5.97;;;;;;;7.06;100.00;99535.81;5056296;28;20207;-75
2024/01/06 10:00:21;;;;;;;6.43;5.83;;;;;;;7.05;100.00;99538.38;5049349;28;20275;-77
2024/01/06 10:02:51;;;;;;;6.17;5.57;;;;;;;7.11;100.00;99536.63;5057944;28;20205;-77
2024/01/06 10:05:17;;;;;;;6.83;6.00;;;;;;;7.13;100.00;99537.47;5051639;28;20209;-77
2024/01/06 10:07:46;;;;;;;6.87;6.20;;;;;;;7.12;100.00;99538.31;5058573;28;20208;-77
2024/01/06 10:10:12;;;;;;;6.17;5.57;;;;;;;7.12;100.00;99534.91;5056527;28;20271;-79
2024/01/06 10:12:41;;;;;;;11.43;9.90;;;;;;;7.13;100.00;99532.31;5059165;28;20657;-77
2024/01/06 10:15:08;;;;;;;13.47;12.13;;;;;;;7.21;100.00;99526.28;5054563;28;20216;-78
2024/01/06 10:17:37;;;;;;;11.27;10.20;;;;;;;7.28;100.00;99536.50;5059525;28;20187;-77
2024/01/06 10:20:07;;;;;;;12.10;11.00;;;;;;;7.36;100.00;99538.16;5054646;28;20186;-77
2024/01/06 10:22:32;;;;;;;8.50;7.70;;;;;;;7.43;100.00;99539.81;5053927;28;20293;-76
2024/01/06 10:24:57;;;;;;;7.13;6.03;;;;;;;7.48;100.00;99530.34;5056952;28;20615;-76
2024/01/06 10:27:23;;;;;;;6.53;5.93;;;;;;;7.51;100.00;99529.47;5060389;28;20197;-78
2024/01/06 10:29:48;;;;;;;7.70;5.67;;;;;;;7.55;100.00;99531.16;5053532;28;21612;-78
2024/01/06 10:32:13;;;;;;;5.23;4.73;;;;;;;7.59;100.00;99527.66;5057608;28;21207;-77
2024/01/06 10:34:39;;;;;;;5.37;4.80;;;;;;;7.61;100.00;99534.53;5055466;28;20662;-76
2024/01/06 10:37:05;;;;;;;6.17;4.90;;;;;;;7.64;100.00;99533.63;5053755;28;20194;-77
2024/01/06 10:39:31;;;;;;;6.80;5.47;;;;;;;7.68;100.00;99530.19;5061130;28;20196;-76
2024/01/06 10:41:57;;;;;;;5.47;4.97;;;;;;;7.72;100.00;99538.72;5056559;28;20209;-77
2024/01/06 10:44:24;;;;;;;5.20;4.43;;;;;;;7.77;100.00;99534.38;5064619;28;20187;-78
2024/01/06 10:46:49;;;;;;;4.40;4.00;;;;;;;7.82;100.00;99535.19;5057047;28;20205;-77
2024/01/06 10:49:15;;;;;;;5.20;4.70;;;;;;;7.86;100.00;99533.44;5057172;28;20738;-77
2024/01/06 10:51:40;;;;;;;7.03;5.10;;;;;;;7.90;100.00;99533.41;5057132;28;20181;-79
2024/01/06 10:54:06;;;;;;;4.83;4.20;;;;;;;7.94;100.00;99535.03;5060806;28;22340;-77
2024/01/06 10:56:36;;;;;;;5.07;4.57;;;;;;;7.99;100.00;99535.03;5057842;28;20263;-78
2024/01/06 10:59:03;;;;;;;5.03;4.53;;;;;;;8.05;100.00;99541.84;5063501;28;20262;-77
2024/01/06 11:01:29;;;;;;;5.20;4.40;;;;;;;8.13;100.00;99534.84;5061277;28;20670;-77
2024/01/06 11:03:55;;;;;;;5.27;4.77;;;;;;;8.22;100.00;99532.19;5064391;28;20205;-77
2024/01/06 11:06:21;;;;;;;5.70;5.03;;;;;;;8.27;100.00;99531.25;5063289;28;20205;-76
2024/01/06 11:08:52;;;;;;;5.73;4.50;;;;;;;8.26;100.00;99529.56;5054896;28;20193;-77
2024/01/06 11:11:19;;;;;;;4.40;3.97;;;;;;;8.23;100.00;99528.75;5053707;28;20197;-77
2024/01/06 11:13:47;;;;;;;4.40;4.00;;;;;;;8.22;100.00;99524.47;5065168;28;20181;-77
2024/01/06 11:16:35;;;;;;;4.00;3.70;;;;;;;8.22;100.00;99529.63;5056520;28;20205;-78
2024/01/06 11:19:01;;;;;;;4.17;3.77;;;;;;;8.20;100.00;99518.47;5057637;28;20174;-77
2024/01/06 11:21:26;;;;;;;5.27;4.50;;;;;;;8.21;100.00;99520.19;5057069;28;20204;-79
2024/01/06 11:24:15;;;;;;;4.50;4.10;;;;;;;8.23;100.00;99525.31;5068970;28;20238;-78
2024/01/06 11:26:42;;;;;;;5.53;4.20;;;;;;;8.22;100.00;99524.47;5063204;28;20205;-77